createdAt,value
2022-12-22T00:01:05.455Z,70.64
2022-12-22T00:03:51.711Z,70.56
2022-12-22T00:06:37.513Z,70.76
2022-12-22T00:09:23.056Z,70.60
2022-12-22T00:12:10.345Z,70.58
2022-12-22T00:14:55.953Z,70.71
2022-12-22T00:17:45.018Z,70.88
2022-12-22T00:20:33.032Z,70.86
2022-12-22T00:23:18.507Z,71.05
2022-12-22T00:26:04.637Z,71.23
2022-12-22T00:28:52.738Z,71.08
2022-12-22T00:31:39.327Z,71.23
2022-12-22T00:34:32.500Z,71.19
2022-12-22T00:37:18.285Z,71.33
2022-12-22T00:40:03.813Z,71.56
2022-12-22T00:42:49.927Z,71.32
2022-12-22T00:45:37.390Z,71.15
2022-12-22T00:48:24.963Z,71.14
2022-12-22T00:51:10.576Z,71.19
2022-12-22T00:53:55.959Z,71.04
2022-12-22T00:56:41.690Z,71.34
2022-12-22T00:59:29.930Z,71.34
2022-12-22T01:02:16.994Z,71.32
2022-12-22T01:05:02.834Z,71.44
2022-12-22T01:07:48.797Z,71.39
2022-12-22T01:10:34.632Z,71.21
2022-12-22T01:13:20.212Z,71.38
2022-12-22T01:16:05.988Z,71.44
2022-12-22T01:18:53.235Z,71.22
2022-12-22T01:21:39.141Z,71.15
2022-12-22T01:24:30.272Z,71.13
2022-12-22T01:27:16.129Z,71.05
2022-12-22T01:30:02.054Z,71.28
2022-12-22T01:32:47.901Z,70.80
2022-12-22T01:35:39.965Z,70.82
2022-12-22T01:38:26.024Z,71.11
2022-12-22T01:41:12.819Z,71.19
2022-12-22T01:43:58.592Z,71.08
2022-12-22T01:46:47.024Z,71.14
2022-12-22T01:49:37.897Z,70.91
2022-12-22T01:52:26.504Z,70.93
2022-12-22T01:55:15.675Z,70.78
2022-12-22T01:58:01.796Z,70.94
2022-12-22T02:00:47.178Z,71.10
2022-12-22T02:03:34.848Z,70.98
2022-12-22T02:06:32.366Z,70.78
2022-12-22T02:09:31.070Z,70.69
2022-12-22T02:15:41.391Z,70.89
2022-12-22T02:18:34.515Z,70.75
2022-12-22T02:21:24.005Z,70.24
2022-12-22T02:24:30.870Z,70.37
2022-12-22T02:27:20.531Z,70.51
2022-12-22T02:30:09.942Z,70.52
2022-12-22T02:33:03.590Z,70.55
2022-12-22T02:36:02.198Z,70.31
2022-12-22T02:38:59.252Z,70.43
2022-12-22T02:41:53.325Z,70.55
2022-12-22T02:44:48.272Z,70.59
2022-12-22T02:47:42.347Z,70.21
2022-12-22T02:50:36.119Z,70.45
2022-12-22T02:53:24.753Z,70.14
2022-12-22T02:56:18.002Z,70.38
2022-12-22T02:59:03.677Z,70.62
2022-12-22T03:01:51.088Z,70.37
2022-12-22T03:04:36.628Z,70.24
2022-12-22T03:07:22.106Z,70.10
2022-12-22T03:10:07.560Z,70.18
2022-12-22T03:12:53.148Z,70.24
2022-12-22T03:15:38.521Z,70.30
2022-12-22T03:18:28.910Z,70.22
2022-12-22T03:21:15.571Z,70.62
2022-12-22T03:24:01.895Z,70.35
2022-12-22T03:26:30.744Z,70.31
2022-12-22T03:28:59.071Z,70.42
2022-12-22T03:31:27.891Z,70.19
2022-12-22T03:33:57.942Z,70.17
2022-12-22T03:36:26.305Z,69.81
2022-12-22T03:38:54.675Z,69.80
2022-12-22T03:41:40.402Z,69.48
2022-12-22T03:44:25.751Z,69.84
2022-12-22T03:46:54.061Z,69.85
2022-12-22T03:49:23.910Z,69.68
2022-12-22T03:51:53.638Z,69.84
2022-12-22T03:54:25.050Z,70.37
2022-12-22T03:56:54.116Z,70.19
2022-12-22T03:59:22.663Z,70.28
2022-12-22T04:01:52.485Z,70.33
2022-12-22T04:04:24.701Z,70.31
2022-12-22T04:06:53.690Z,70.00
2022-12-22T04:09:24.937Z,70.35
2022-12-22T04:12:10.425Z,70.27
2022-12-22T04:14:38.703Z,70.51
2022-12-22T04:17:08.341Z,70.57
2022-12-22T04:19:38.230Z,70.44
2022-12-22T04:22:07.419Z,70.66
2022-12-22T04:24:35.878Z,70.37
2022-12-22T04:27:04.297Z,70.52
2022-12-22T04:29:32.551Z,70.65
2022-12-22T04:32:00.911Z,70.94
2022-12-22T04:34:29.275Z,70.27
2022-12-22T04:37:07.089Z,70.62
2022-12-22T04:39:41.257Z,70.51
2022-12-22T04:42:09.566Z,70.66
2022-12-22T04:44:37.858Z,70.40
2022-12-22T04:47:06.397Z,70.54
2022-12-22T04:49:34.712Z,70.53
2022-12-22T04:52:04.737Z,70.81
2022-12-22T04:54:33.069Z,70.76
2022-12-22T04:57:01.427Z,70.64
2022-12-22T04:59:29.725Z,70.76
2022-12-22T05:01:58.769Z,70.60
2022-12-22T05:04:27.327Z,70.81
2022-12-22T05:06:55.655Z,70.80
2022-12-22T05:09:25.409Z,70.75
2022-12-22T05:11:53.802Z,70.91
2022-12-22T05:14:22.162Z,70.61
2022-12-22T05:16:50.553Z,70.85
2022-12-22T05:19:20.696Z,70.64
2022-12-22T05:21:48.991Z,70.56
2022-12-22T05:24:17.417Z,70.62
2022-12-22T05:26:47.221Z,70.45
2022-12-22T05:29:15.614Z,70.22
2022-12-22T05:31:47.266Z,70.40
2022-12-22T05:34:16.000Z,70.46
2022-12-22T05:36:44.534Z,70.12
2022-12-22T05:39:12.799Z,70.31
2022-12-22T05:41:41.152Z,70.12
2022-12-22T05:44:10.932Z,70.13
2022-12-22T05:46:39.383Z,69.90
2022-12-22T05:49:07.818Z,69.94
2022-12-22T05:51:36.118Z,69.94
2022-12-22T05:54:04.543Z,70.06
2022-12-22T05:56:32.911Z,70.08
2022-12-22T05:59:01.222Z,70.30
2022-12-22T06:01:31.051Z,70.26
2022-12-22T06:04:00.697Z,70.39
2022-12-22T06:06:29.305Z,70.55
2022-12-22T06:08:57.999Z,70.45
2022-12-22T06:11:26.288Z,70.66
2022-12-22T06:13:54.702Z,70.65
2022-12-22T06:16:23.273Z,70.75
2022-12-22T06:18:53.115Z,70.74
2022-12-22T06:21:21.484Z,70.90
2022-12-22T06:23:49.825Z,70.99
2022-12-22T06:26:18.448Z,70.88
2022-12-22T06:28:46.823Z,70.80
2022-12-22T06:31:15.232Z,71.08
2022-12-22T06:33:43.650Z,71.05
2022-12-22T06:36:13.535Z,71.09
2022-12-22T06:38:41.900Z,71.21
2022-12-22T06:41:10.338Z,71.19
2022-12-22T06:43:37.607Z,71.13
2022-12-22T06:46:06.293Z,71.34
2022-12-22T06:48:34.694Z,71.69
2022-12-22T06:51:03.087Z,71.40
2022-12-22T06:53:32.797Z,71.59
2022-12-22T06:56:01.102Z,71.75
2022-12-22T06:58:29.466Z,71.42
2022-12-22T07:00:58.022Z,71.68
2022-12-22T07:03:26.437Z,71.84
2022-12-22T07:05:54.862Z,71.93
2022-12-22T07:08:23.193Z,71.64
2022-12-22T07:11:09.618Z,71.53
2022-12-22T07:13:37.882Z,71.73
2022-12-22T07:16:08.264Z,71.61
2022-12-22T07:18:38.333Z,71.97
2022-12-22T07:21:09.326Z,72.25
2022-12-22T07:23:38.293Z,72.04
2022-12-22T07:26:09.400Z,72.02
2022-12-22T07:28:39.301Z,72.48
2022-12-22T07:31:09.318Z,72.11
2022-12-22T07:33:37.690Z,71.93
2022-12-22T07:36:09.129Z,72.28
2022-12-22T07:38:39.240Z,72.41
2022-12-22T07:41:32.471Z,72.25
2022-12-22T07:44:01.223Z,71.82
2022-12-22T07:46:32.567Z,71.36
2022-12-22T07:49:18.239Z,71.74
2022-12-22T07:51:46.976Z,72.12
2022-12-22T07:54:16.367Z,71.75
2022-12-22T07:56:48.165Z,72.15
2022-12-22T07:59:17.375Z,72.09
2022-12-22T08:01:48.417Z,72.16
2022-12-22T08:04:17.358Z,71.76
2022-12-22T08:06:46.059Z,71.40
2022-12-22T08:09:17.185Z,71.63
2022-12-22T08:11:46.929Z,71.33
2022-12-22T08:14:15.329Z,71.28
2022-12-22T08:16:43.784Z,71.25
2022-12-22T08:19:12.904Z,71.74
2022-12-22T08:21:44.218Z,72.03
2022-12-22T08:24:18.562Z,72.00
2022-12-22T08:26:50.131Z,71.72
2022-12-22T08:29:23.032Z,72.05
2022-12-22T08:31:51.474Z,72.25
2022-12-22T08:34:20.036Z,72.70
2022-12-22T08:36:52.357Z,72.19
2022-12-22T08:39:22.827Z,72.26
2022-12-22T08:41:52.943Z,72.20
2022-12-22T08:44:24.268Z,72.39
2022-12-22T08:46:53.932Z,72.41
2022-12-22T08:49:22.948Z,71.94
2022-12-22T08:51:51.534Z,71.14
2022-12-22T08:54:20.638Z,71.38
2022-12-22T08:56:49.676Z,71.24
2022-12-22T08:59:19.500Z,71.29
2022-12-22T09:01:51.220Z,71.03
2022-12-22T09:04:21.801Z,71.10
2022-12-22T09:06:52.684Z,70.95
2022-12-22T09:09:22.971Z,71.06
2022-12-22T09:11:52.279Z,70.62
2022-12-22T09:14:22.198Z,70.76
2022-12-22T09:16:50.928Z,70.41
2022-12-22T09:19:19.322Z,70.61
2022-12-22T09:21:47.750Z,70.77
2022-12-22T09:24:16.216Z,70.91
2022-12-22T09:26:44.652Z,70.92
2022-12-22T09:29:16.040Z,71.08
2022-12-22T09:31:48.059Z,71.20
2022-12-22T09:34:18.492Z,71.23
2022-12-22T09:36:48.065Z,70.74
2022-12-22T09:39:17.277Z,70.75
2022-12-22T09:41:49.697Z,71.06
2022-12-22T09:44:25.843Z,71.08
2022-12-22T09:46:58.929Z,70.70
2022-12-22T09:49:28.744Z,70.54
2022-12-22T09:52:00.747Z,70.18
2022-12-22T09:54:31.322Z,70.47
2022-12-22T09:57:00.184Z,71.08
2022-12-22T09:59:31.351Z,71.02
2022-12-22T10:02:16.961Z,70.13
2022-12-22T10:05:07.656Z,70.19
2022-12-22T10:07:39.391Z,70.66
2022-12-22T10:10:10.072Z,70.79
2022-12-22T10:12:38.402Z,69.42
2022-12-22T10:15:14.274Z,70.14
2022-12-22T10:17:52.653Z,69.73
2022-12-22T10:20:28.040Z,70.23
2022-12-22T10:22:58.868Z,70.53
2022-12-22T10:25:45.092Z,70.47
2022-12-22T10:28:24.069Z,70.93
2022-12-22T10:31:11.789Z,70.92
2022-12-22T10:33:46.636Z,70.94
2022-12-22T10:36:17.671Z,70.02
2022-12-22T10:39:00.253Z,70.30
2022-12-22T10:41:31.419Z,70.96
2022-12-22T10:44:02.948Z,70.85
2022-12-22T10:46:37.799Z,70.56
2022-12-22T10:49:20.231Z,70.54
2022-12-22T10:51:52.838Z,70.73
2022-12-22T10:54:31.713Z,70.70
2022-12-22T10:57:20.995Z,70.97
2022-12-22T10:59:51.972Z,70.89
2022-12-22T11:02:37.890Z,70.68
2022-12-22T11:05:10.271Z,70.87
2022-12-22T11:07:41.205Z,70.39
2022-12-22T11:10:18.706Z,70.31
2022-12-22T11:13:02.507Z,70.02
2022-12-22T11:15:36.541Z,68.99
2022-12-22T11:18:18.529Z,69.30
2022-12-22T11:20:56.870Z,68.62
2022-12-22T11:23:34.633Z,68.92
2022-12-22T11:26:15.982Z,69.47
2022-12-22T11:29:03.411Z,69.64
2022-12-22T11:31:54.998Z,70.03
2022-12-22T11:34:40.578Z,69.76
2022-12-22T11:37:29.529Z,69.40
2022-12-22T11:40:05.029Z,69.89
2022-12-22T11:42:54.598Z,69.36
2022-12-22T11:45:43.582Z,69.50
2022-12-22T11:48:31.940Z,69.18
2022-12-22T11:51:12.410Z,69.19
2022-12-22T11:54:14.406Z,69.40
2022-12-22T11:56:45.761Z,69.43
2022-12-22T11:59:33.598Z,69.45
2022-12-22T12:02:30.517Z,69.48
2022-12-22T12:05:19.999Z,68.88
2022-12-22T12:07:55.675Z,69.42
2022-12-22T12:10:29.175Z,69.43
2022-12-22T12:13:08.873Z,69.62
2022-12-22T12:15:42.312Z,69.30
2022-12-22T12:18:37.622Z,69.86
2022-12-22T12:21:21.915Z,69.80
2022-12-22T12:24:07.942Z,69.45
2022-12-22T12:26:45.709Z,69.16
2022-12-22T12:29:20.284Z,68.93
2022-12-22T12:31:55.824Z,67.99
2022-12-22T12:34:26.020Z,68.49
2022-12-22T12:37:03.313Z,69.12
2022-12-22T12:39:38.307Z,69.07
2022-12-22T12:42:23.142Z,69.21
2022-12-22T12:44:52.631Z,67.74
2022-12-22T12:47:26.713Z,67.24
2022-12-22T12:50:01.235Z,67.99
2022-12-22T12:53:14.781Z,67.95
2022-12-22T12:56:03.729Z,68.59
2022-12-22T12:58:56.173Z,68.16
2022-12-22T13:02:01.546Z,67.18
2022-12-22T13:05:06.410Z,67.45
2022-12-22T13:07:53.195Z,67.56
2022-12-22T13:10:25.800Z,68.37
2022-12-22T13:12:58.151Z,68.47
2022-12-22T13:15:33.818Z,67.61
2022-12-22T13:18:04.012Z,68.55
2022-12-22T13:20:35.503Z,69.02
2022-12-22T13:23:11.861Z,67.87
2022-12-22T13:25:46.922Z,68.35
2022-12-22T13:28:17.887Z,69.17
2022-12-22T13:30:54.625Z,68.59
2022-12-22T13:33:28.214Z,68.49
2022-12-22T13:35:59.314Z,68.29
2022-12-22T13:38:30.678Z,68.90
2022-12-22T13:41:00.178Z,67.78
2022-12-22T13:43:30.649Z,68.47
2022-12-22T13:46:04.409Z,68.79
2022-12-22T13:48:43.335Z,68.83
2022-12-22T13:51:20.369Z,69.20
2022-12-22T13:54:10.400Z,68.57
2022-12-22T13:56:42.764Z,68.21
2022-12-22T13:59:23.205Z,67.54
2022-12-22T14:01:58.062Z,68.18
2022-12-22T14:04:26.656Z,68.79
2022-12-22T14:06:56.174Z,68.63
2022-12-22T14:09:26.440Z,68.89
2022-12-22T14:11:59.225Z,68.72
2022-12-22T14:14:30.119Z,68.39
2022-12-22T14:17:01.732Z,68.81
2022-12-22T14:19:35.285Z,68.69
2022-12-22T14:22:08.508Z,69.07
2022-12-22T14:24:43.643Z,69.37
2022-12-22T14:27:20.300Z,69.38
2022-12-22T14:29:49.054Z,69.24
2022-12-22T14:32:40.824Z,68.91
2022-12-22T14:35:28.520Z,68.96
2022-12-22T14:38:10.419Z,69.55
2022-12-22T14:40:41.341Z,69.40
2022-12-22T14:43:27.121Z,68.88
2022-12-22T14:46:06.089Z,68.88
2022-12-22T14:48:39.733Z,69.01
2022-12-22T14:51:09.191Z,68.73
2022-12-22T14:53:45.527Z,68.77
2022-12-22T14:56:18.212Z,69.15
2022-12-22T14:58:48.633Z,69.26
2022-12-22T15:01:21.388Z,69.25
2022-12-22T15:04:03.338Z,68.68
2022-12-22T15:06:40.693Z,67.84
2022-12-22T15:09:47.619Z,68.28
2022-12-22T15:12:15.641Z,67.86
2022-12-22T15:14:47.793Z,67.95
2022-12-22T15:17:22.474Z,67.79
2022-12-22T15:19:52.819Z,67.68
2022-12-22T15:22:21.522Z,67.25
2022-12-22T15:24:50.226Z,67.35
2022-12-22T15:27:18.544Z,67.04
2022-12-22T15:29:47.514Z,67.17
2022-12-22T15:32:16.691Z,66.81
2022-12-22T15:34:45.354Z,66.96
2022-12-22T15:37:15.270Z,67.17
2022-12-22T15:39:45.029Z,67.12
2022-12-22T15:42:13.310Z,67.03
2022-12-22T15:44:41.987Z,66.83
2022-12-22T15:47:13.925Z,66.71
2022-12-22T15:49:42.484Z,66.78
2022-12-22T15:52:14.894Z,66.83
2022-12-22T15:54:44.867Z,66.78
2022-12-22T15:57:15.511Z,67.06
2022-12-22T15:59:43.890Z,66.84
2022-12-22T16:02:13.600Z,67.12
2022-12-22T16:04:43.273Z,67.09
2022-12-22T16:07:13.035Z,66.58
2022-12-22T16:09:43.161Z,66.77
2022-12-22T16:12:17.399Z,66.79
2022-12-22T16:14:50.820Z,65.45
2022-12-22T16:17:20.104Z,66.37
2022-12-22T16:19:48.688Z,66.19
2022-12-22T16:22:21.220Z,66.16
2022-12-22T16:24:51.154Z,65.87
2022-12-22T16:27:21.301Z,66.75
2022-12-22T16:29:53.350Z,66.47
2022-12-22T16:32:26.175Z,65.96
2022-12-22T16:34:54.834Z,66.52
2022-12-22T16:37:23.232Z,66.61
2022-12-22T16:39:51.561Z,65.89
2022-12-22T16:45:15.848Z,65.87
2022-12-22T16:47:44.258Z,65.72
2022-12-22T16:50:19.572Z,65.78
2022-12-22T16:52:48.687Z,65.13
2022-12-22T16:55:18.525Z,65.00
2022-12-22T16:57:48.655Z,64.44
2022-12-22T17:00:18.918Z,63.82
2022-12-22T17:02:51.324Z,64.37
2022-12-22T17:05:27.467Z,64.79
2022-12-22T17:07:56.878Z,65.03
2022-12-22T17:10:25.730Z,64.87
2022-12-22T17:12:59.049Z,64.95
2022-12-22T17:15:27.548Z,65.17
2022-12-22T17:17:56.104Z,64.81
2022-12-22T17:20:29.411Z,64.84
2022-12-22T17:23:00.564Z,64.77
2022-12-22T17:25:32.299Z,64.74
2022-12-22T17:28:03.788Z,64.15
2022-12-22T17:30:32.338Z,64.79
2022-12-22T17:33:00.802Z,64.54
2022-12-22T17:35:29.515Z,64.96
2022-12-22T17:37:57.847Z,64.84
2022-12-22T17:40:27.745Z,65.28
2022-12-22T17:42:56.439Z,65.42
2022-12-22T17:45:26.717Z,65.42
2022-12-22T17:47:54.991Z,65.50
2022-12-22T17:50:24.903Z,65.57
2022-12-22T17:52:55.338Z,65.82
2022-12-22T17:56:05.207Z,65.78
2022-12-22T17:58:16.253Z,65.96
2022-12-22T18:00:46.558Z,66.16
2022-12-22T18:03:16.488Z,65.77
2022-12-22T18:05:48.784Z,65.99
2022-12-22T18:08:20.779Z,65.78
2022-12-22T18:10:49.721Z,66.28
2022-12-22T18:13:20.531Z,66.33
2022-12-22T18:15:50.535Z,66.24
2022-12-22T18:18:21.003Z,66.56
2022-12-22T18:21:05.674Z,66.41
2022-12-22T18:23:38.412Z,66.97
2022-12-22T18:26:09.815Z,66.85
2022-12-22T18:28:38.372Z,66.46
2022-12-22T18:31:08.396Z,66.37
2022-12-22T18:33:36.826Z,66.48
2022-12-22T18:36:05.489Z,66.57
2022-12-22T18:38:36.496Z,66.81
2022-12-22T18:41:04.868Z,66.66
2022-12-22T18:43:33.233Z,66.96
2022-12-22T18:46:01.671Z,66.86
2022-12-22T18:48:31.772Z,66.87
2022-12-22T18:51:00.149Z,67.29
2022-12-22T18:53:31.130Z,67.20
2022-12-22T18:56:00.042Z,67.34
2022-12-22T18:58:29.013Z,67.36
2022-12-22T19:00:59.084Z,67.51
2022-12-22T19:03:30.131Z,67.52
2022-12-22T19:06:00.445Z,67.69
2022-12-22T19:08:31.542Z,67.60
2022-12-22T19:11:02.370Z,67.75
2022-12-22T19:13:36.062Z,67.83
2022-12-22T19:16:04.498Z,67.98
2022-12-22T19:18:32.907Z,67.75
2022-12-22T19:21:02.663Z,68.12
2022-12-22T19:23:31.859Z,67.85
2022-12-22T19:26:08.859Z,67.79
2022-12-22T19:28:41.643Z,67.16
2022-12-22T19:31:16.370Z,68.12
2022-12-22T19:33:46.724Z,68.38
2022-12-22T19:36:20.840Z,68.78
2022-12-22T19:38:51.201Z,68.75
2022-12-22T19:41:44.468Z,69.08
2022-12-22T19:44:20.448Z,69.02
2022-12-22T19:46:50.643Z,68.82
2022-12-22T19:49:23.597Z,68.95
2022-12-22T19:51:54.720Z,69.19
2022-12-22T19:54:24.430Z,69.12
2022-12-22T19:56:56.959Z,69.26
2022-12-22T19:59:38.641Z,69.41
2022-12-22T20:02:26.603Z,69.64
2022-12-22T20:04:58.106Z,69.57
2022-12-22T20:07:30.806Z,69.15
2022-12-22T20:10:00.701Z,69.26
2022-12-22T20:12:34.218Z,69.48
2022-12-22T20:15:04.633Z,69.09
2022-12-22T20:17:34.671Z,68.54
2022-12-22T20:20:04.249Z,69.08
2022-12-22T20:22:35.484Z,68.92
2022-12-22T20:25:05.495Z,68.34
2022-12-22T20:27:36.992Z,67.91
2022-12-22T20:30:07.133Z,68.82
2022-12-22T20:32:36.937Z,68.86
2022-12-22T20:35:07.079Z,67.19
2022-12-22T20:37:39.373Z,67.45
2022-12-22T20:40:22.169Z,68.10
2022-12-22T20:42:52.602Z,67.33
2022-12-22T20:45:23.099Z,68.25
2022-12-22T20:47:53.623Z,68.62
2022-12-22T20:50:25.472Z,68.82
2022-12-22T20:52:57.020Z,69.66
2022-12-22T20:55:29.121Z,69.41
2022-12-22T20:57:59.214Z,69.69
2022-12-22T21:00:31.171Z,69.87
2022-12-22T21:03:01.643Z,70.35
2022-12-22T21:05:30.172Z,70.15
2022-12-22T21:08:00.035Z,69.75
2022-12-22T21:10:28.415Z,69.89
2022-12-22T21:12:56.793Z,70.31
2022-12-22T21:15:28.358Z,70.54
2022-12-22T21:17:58.725Z,70.38
2022-12-22T21:20:29.600Z,70.43
2022-12-22T21:22:59.416Z,70.54
2022-12-22T21:25:28.120Z,71.05
2022-12-22T21:27:57.526Z,70.77
2022-12-22T21:30:28.721Z,70.80
2022-12-22T21:32:58.076Z,70.72
2022-12-22T21:35:27.973Z,70.88
2022-12-22T21:37:58.792Z,70.71
2022-12-22T21:40:30.221Z,70.22
2022-12-22T21:42:59.114Z,70.47
2022-12-22T21:45:29.996Z,69.80
2022-12-22T21:48:01.114Z,70.04
2022-12-22T21:50:32.201Z,70.38
2022-12-22T21:53:00.885Z,70.41
2022-12-22T21:55:32.276Z,70.09
2022-12-22T21:58:01.271Z,70.20
2022-12-22T22:00:31.249Z,70.21
2022-12-22T22:03:00.726Z,70.28
2022-12-22T22:05:33.770Z,69.93
2022-12-22T22:08:03.936Z,70.25
2022-12-22T22:10:37.830Z,70.31
2022-12-22T22:13:07.041Z,70.37
2022-12-22T22:15:36.429Z,70.36
2022-12-22T22:18:07.501Z,69.95
2022-12-22T22:20:36.424Z,70.01
2022-12-22T22:23:04.758Z,70.07
2022-12-22T22:25:34.485Z,69.96
2022-12-22T22:28:02.944Z,69.95
2022-12-22T22:30:31.391Z,69.80
2022-12-22T22:32:59.780Z,69.86
2022-12-22T22:35:28.977Z,69.99
2022-12-22T22:37:57.351Z,70.06
2022-12-22T22:40:26.803Z,70.16
2022-12-22T22:42:57.154Z,70.04
2022-12-22T22:45:25.505Z,69.96
2022-12-22T22:47:54.707Z,69.83
2022-12-22T22:50:23.791Z,70.02
2022-12-22T22:52:52.189Z,69.77
2022-12-22T22:55:20.482Z,69.88
2022-12-22T22:57:49.023Z,69.80
2022-12-22T23:00:21.871Z,70.25
2022-12-22T23:02:50.326Z,69.92
2022-12-22T23:05:22.930Z,69.87
2022-12-22T23:07:51.690Z,69.97
2022-12-22T23:10:20.441Z,69.46
2022-12-22T23:12:48.716Z,69.47
2022-12-22T23:15:18.884Z,69.50
2022-12-22T23:17:47.146Z,69.44
2022-12-22T23:20:15.841Z,69.45
2022-12-22T23:22:44.221Z,69.49
2022-12-22T23:25:12.492Z,69.39
2022-12-22T23:27:40.895Z,69.05
2022-12-22T23:30:10.649Z,69.47
2022-12-22T23:32:40.459Z,69.36
2022-12-22T23:35:09.290Z,68.25
2022-12-22T23:37:37.774Z,69.11
2022-12-22T23:42:57.245Z,69.05
2022-12-22T23:45:25.989Z,69.21
2022-12-22T23:47:56.015Z,69.00
2022-12-22T23:50:24.593Z,68.99
2022-12-22T23:52:53.676Z,68.85
2022-12-22T23:55:22.318Z,68.86
2022-12-22T23:57:51.487Z,68.84
